createdAt,value
2023-04-22T00:00:23.270Z,7.35
2023-04-22T00:02:53.046Z,7.15
2023-04-22T00:05:25.688Z,6.72
2023-04-22T00:07:55.445Z,7.03
2023-04-22T00:10:25.185Z,7.85
2023-04-22T00:12:54.820Z,7.35
2023-04-22T00:15:25.652Z,7.70
2023-04-22T00:17:55.849Z,7.93
2023-04-22T00:20:29.488Z,7.45
2023-04-22T00:22:59.159Z,7.13
2023-04-22T00:25:28.829Z,7.70
2023-04-22T00:27:58.500Z,7.43
2023-04-22T00:30:28.789Z,7.13
2023-04-22T00:32:58.473Z,7.60
2023-04-22T00:35:30.939Z,7.65
2023-04-22T00:38:00.631Z,7.68
2023-04-22T00:40:30.426Z,8.20
2023-04-22T00:43:02.209Z,8.13
2023-04-22T00:45:33.773Z,8.88
2023-04-22T00:48:03.931Z,8.20
2023-04-22T00:50:36.195Z,8.05
2023-04-22T00:53:06.083Z,7.85
2023-04-22T00:55:36.109Z,8.02
2023-04-22T00:58:06.591Z,8.40
2023-04-22T01:00:36.325Z,7.80
2023-04-22T01:03:08.463Z,7.22
2023-04-22T01:05:41.122Z,8.40
2023-04-22T01:08:10.970Z,8.07
2023-04-22T01:10:41.552Z,8.32
2023-04-22T01:13:11.658Z,7.85
2023-04-22T01:15:41.406Z,8.65
2023-04-22T01:18:11.572Z,7.95
2023-04-22T01:20:45.611Z,7.78
2023-04-22T01:23:22.114Z,8.43
2023-04-22T01:25:52.359Z,7.82
2023-04-22T01:28:22.177Z,7.88
2023-04-22T01:30:52.798Z,8.35
2023-04-22T01:33:22.654Z,8.35
2023-04-22T01:35:52.411Z,8.38
2023-04-22T01:38:24.668Z,9.02
2023-04-22T01:40:54.833Z,8.90
2023-04-22T01:43:24.820Z,8.43
2023-04-22T01:45:54.572Z,8.55
2023-04-22T01:48:24.298Z,8.23
2023-04-22T01:50:54.150Z,8.27
2023-04-22T01:53:26.472Z,9.13
2023-04-22T01:55:56.205Z,9.23
2023-04-22T01:58:25.902Z,8.38
2023-04-22T02:00:55.638Z,9.07
2023-04-22T02:03:25.658Z,8.02
2023-04-22T02:05:56.627Z,8.57
2023-04-22T02:08:29.016Z,8.90
2023-04-22T02:11:00.607Z,9.15
2023-04-22T02:13:37.002Z,9.25
2023-04-22T02:16:07.395Z,8.77
2023-04-22T02:18:37.267Z,8.93
2023-04-22T02:21:07.111Z,8.85
2023-04-22T02:23:39.701Z,8.85
2023-04-22T02:26:10.958Z,8.98
2023-04-22T02:28:41.729Z,8.60
2023-04-22T02:31:11.499Z,9.50
2023-04-22T02:33:43.503Z,9.27
2023-04-22T02:36:13.287Z,8.45
2023-04-22T02:38:45.653Z,9.40
2023-04-22T02:41:17.952Z,8.77
2023-04-22T02:43:48.029Z,9.18
2023-04-22T02:46:18.828Z,8.70
2023-04-22T02:48:49.155Z,9.10
2023-04-22T02:51:18.999Z,9.18
2023-04-22T02:53:51.222Z,9.65
2023-04-22T02:56:20.901Z,9.25
2023-04-22T02:58:50.693Z,9.43
2023-04-22T03:01:20.541Z,9.20
2023-04-22T03:03:50.639Z,9.57
2023-04-22T03:06:24.717Z,9.82
2023-04-22T03:08:57.392Z,8.70
2023-04-22T03:11:27.408Z,9.43
2023-04-22T03:13:57.132Z,9.35
2023-04-22T03:16:27.373Z,9.88
2023-04-22T03:18:59.030Z,10.32
2023-04-22T03:21:28.879Z,9.82
2023-04-22T03:24:01.688Z,10.02
2023-04-22T03:26:34.816Z,9.90
2023-04-22T03:29:04.517Z,9.43
2023-04-22T03:31:34.268Z,9.48
2023-04-22T03:34:04.108Z,10.05
2023-04-22T03:36:34.812Z,10.38
2023-04-22T03:39:08.081Z,11.23
2023-04-22T03:41:38.256Z,9.55
2023-04-22T03:44:08.571Z,9.93
2023-04-22T03:46:39.488Z,10.05
2023-04-22T03:49:20.353Z,11.05
2023-04-22T03:51:50.293Z,10.23
2023-04-22T03:54:27.590Z,9.90
2023-04-22T03:56:58.491Z,10.25
2023-04-22T03:59:29.174Z,10.98
2023-04-22T04:01:59.450Z,10.70
2023-04-22T04:04:30.666Z,11.40
2023-04-22T04:07:04.120Z,11.15
2023-04-22T04:09:36.749Z,10.77
2023-04-22T04:12:06.800Z,11.18
2023-04-22T04:14:41.293Z,10.90
2023-04-22T04:17:14.293Z,11.18
2023-04-22T04:19:44.401Z,10.60
2023-04-22T04:22:15.156Z,11.77
2023-04-22T04:24:56.146Z,11.18
2023-04-22T04:27:29.858Z,11.10
2023-04-22T04:29:59.599Z,10.95
2023-04-22T04:32:45.921Z,8.07
2023-04-22T04:35:18.537Z,11.15
2023-04-22T04:37:54.000Z,10.85
2023-04-22T04:40:26.643Z,10.27
2023-04-22T04:43:08.815Z,11.32
2023-04-22T04:45:49.753Z,10.18
2023-04-22T04:48:25.117Z,9.88
2023-04-22T04:50:59.191Z,9.32
2023-04-22T04:53:31.903Z,9.15
2023-04-22T04:56:04.208Z,8.77
2023-04-22T04:58:33.922Z,8.38
2023-04-22T05:01:25.374Z,8.88
2023-04-22T05:03:56.052Z,8.10
2023-04-22T05:06:26.706Z,8.60
2023-04-22T05:09:01.787Z,8.38
2023-04-22T05:11:34.220Z,8.23
2023-04-22T05:14:08.833Z,8.40
2023-04-22T05:16:43.304Z,8.65
2023-04-22T05:19:13.292Z,8.90
2023-04-22T05:21:44.328Z,8.95
2023-04-22T05:24:14.032Z,8.88
2023-04-22T05:26:46.475Z,7.78
2023-04-22T05:29:19.927Z,7.50
2023-04-22T05:31:50.158Z,7.65
2023-04-22T05:34:20.028Z,7.15
2023-04-22T05:36:49.810Z,7.47
2023-04-22T05:39:19.774Z,7.15
2023-04-22T05:41:52.140Z,7.30
2023-04-22T05:44:21.969Z,8.10
2023-04-22T05:46:51.710Z,6.82
2023-04-22T05:49:23.127Z,7.45
2023-04-22T05:52:18.871Z,6.93
2023-04-22T05:54:59.977Z,6.78
2023-04-22T05:57:32.868Z,7.22
2023-04-22T06:00:06.416Z,6.40
2023-04-22T06:02:43.070Z,5.78
2023-04-22T06:05:13.188Z,6.60
2023-04-22T06:07:43.071Z,5.93
2023-04-22T06:10:13.068Z,6.00
2023-04-22T06:12:45.365Z,6.80
2023-04-22T06:15:15.067Z,5.80
2023-04-22T06:17:45.848Z,6.35
2023-04-22T06:20:15.890Z,6.05
2023-04-22T06:22:45.710Z,5.72
2023-04-22T06:25:15.416Z,6.05
2023-04-22T06:27:47.711Z,6.53
2023-04-22T06:30:18.186Z,6.43
2023-04-22T06:32:47.981Z,6.03
2023-04-22T06:35:17.831Z,6.00
2023-04-22T06:37:47.646Z,6.22
2023-04-22T06:40:18.770Z,6.07
2023-04-22T06:43:05.523Z,5.45
2023-04-22T06:46:10.453Z,5.80
2023-04-22T06:49:12.264Z,5.75
2023-04-22T06:52:09.219Z,6.00
2023-04-22T06:54:39.364Z,5.45
2023-04-22T06:57:09.161Z,5.40
2023-04-22T06:59:43.177Z,6.05
2023-04-22T07:02:14.643Z,5.75
2023-04-22T07:04:44.672Z,5.70
2023-04-22T07:07:14.847Z,5.50
2023-04-22T07:09:44.531Z,6.68
2023-04-22T07:12:14.301Z,6.20
2023-04-22T07:14:48.954Z,5.85
2023-04-22T07:17:19.615Z,6.10
2023-04-22T07:19:49.320Z,4.93
2023-04-22T07:22:19.047Z,6.05
2023-04-22T07:24:48.767Z,5.63
2023-04-22T07:27:18.566Z,5.22
2023-04-22T07:29:50.817Z,5.82
2023-04-22T07:32:20.501Z,5.18
2023-04-22T07:34:50.180Z,5.47
2023-04-22T07:37:19.861Z,4.43
2023-04-22T07:39:49.555Z,4.82
2023-04-22T07:42:19.309Z,4.53
2023-04-22T07:44:51.541Z,5.07
2023-04-22T07:47:21.256Z,4.63
2023-04-22T07:49:51.028Z,4.38
2023-04-22T07:52:21.207Z,4.30
2023-04-22T07:54:51.149Z,4.63
2023-04-22T07:57:22.419Z,4.03
2023-04-22T07:59:55.252Z,4.38
2023-04-22T08:02:25.022Z,4.53
2023-04-22T08:04:54.970Z,4.00
2023-04-22T08:09:57.817Z,4.38
2023-04-22T08:12:27.651Z,4.45
2023-04-22T08:15:00.607Z,4.25
2023-04-22T08:17:30.523Z,4.57
2023-04-22T08:20:00.259Z,4.88
2023-04-22T08:22:30.432Z,4.40
2023-04-22T08:25:00.160Z,4.60
2023-04-22T08:27:29.832Z,4.07
2023-04-22T08:30:02.133Z,4.10
2023-04-22T08:32:31.846Z,4.15
2023-04-22T08:35:04.824Z,4.10
2023-04-22T08:37:35.587Z,3.50
2023-04-22T08:40:05.270Z,3.03
2023-04-22T08:42:35.899Z,2.20
2023-04-22T08:45:09.979Z,2.33
2023-04-22T08:47:40.728Z,2.50
2023-04-22T08:50:12.261Z,2.50
2023-04-22T08:52:42.038Z,2.30
2023-04-22T08:55:12.231Z,2.00
2023-04-22T08:57:43.459Z,2.00
2023-04-22T09:00:16.857Z,2.35
2023-04-22T09:02:48.573Z,2.38
2023-04-22T09:05:18.764Z,2.30
2023-04-22T09:07:48.530Z,1.83
2023-04-22T09:10:18.419Z,1.83
2023-04-22T09:12:49.920Z,1.63
2023-04-22T09:15:22.421Z,2.00
2023-04-22T09:17:54.873Z,1.60
2023-04-22T09:20:29.672Z,1.50
2023-04-22T09:23:00.770Z,1.38
2023-04-22T09:25:31.017Z,1.85
2023-04-22T09:28:02.243Z,1.58
2023-04-22T09:30:36.772Z,1.60
2023-04-22T09:33:08.864Z,1.70
2023-04-22T09:35:40.077Z,1.52
2023-04-22T09:38:11.922Z,1.70
2023-04-22T09:40:45.196Z,1.50
2023-04-22T09:43:15.406Z,1.60
2023-04-22T09:45:48.289Z,1.52
2023-04-22T09:48:22.153Z,1.67
2023-04-22T09:50:53.783Z,1.50
2023-04-22T09:53:24.736Z,1.70
2023-04-22T09:55:57.204Z,1.50
2023-04-22T09:58:28.009Z,1.50
2023-04-22T10:01:03.512Z,1.15
2023-04-22T10:03:33.348Z,1.55
2023-04-22T10:06:03.317Z,2.38
2023-04-22T10:08:33.518Z,1.98
2023-04-22T10:11:03.246Z,1.50
2023-04-22T10:13:33.097Z,1.77
2023-04-22T10:16:07.096Z,1.60
2023-04-22T10:18:37.760Z,1.52
2023-04-22T10:21:08.804Z,2.50
2023-04-22T10:23:38.488Z,2.08
2023-04-22T10:26:08.497Z,2.63
2023-04-22T10:28:38.236Z,2.05
2023-04-22T10:31:23.958Z,2.40
2023-04-22T10:33:53.753Z,1.90
2023-04-22T10:36:23.481Z,1.20
2023-04-22T10:39:18.156Z,1.20
2023-04-22T10:42:10.274Z,1.30
2023-04-22T10:44:54.414Z,1.05
2023-04-22T10:47:31.252Z,1.48
2023-04-22T10:50:19.879Z,1.50
2023-04-22T10:52:52.259Z,1.20
2023-04-22T10:55:22.260Z,1.20
2023-04-22T10:57:53.333Z,1.20
2023-04-22T11:00:45.729Z,1.40
2023-04-22T11:03:30.366Z,1.10
2023-04-22T11:06:18.944Z,1.23
2023-04-22T11:08:49.705Z,1.10
2023-04-22T11:11:20.847Z,1.10
2023-04-22T11:13:52.893Z,0.95
2023-04-22T11:16:25.117Z,1.00
2023-04-22T11:18:58.915Z,1.20
2023-04-22T11:21:28.998Z,1.10
2023-04-22T11:24:02.995Z,1.38
2023-04-22T11:26:37.819Z,1.38
2023-04-22T11:29:07.651Z,1.13
2023-04-22T11:31:38.251Z,1.20
2023-04-22T11:34:11.841Z,1.00
2023-04-22T11:36:45.622Z,8.52
2023-04-22T11:39:16.879Z,1.92
2023-04-22T11:41:46.644Z,1.10
2023-04-22T11:44:17.727Z,1.55
2023-04-22T11:46:47.547Z,1.02
2023-04-22T11:49:20.290Z,1.50
2023-04-22T11:51:57.245Z,1.00
2023-04-22T11:54:37.799Z,1.27
2023-04-22T11:57:11.282Z,1.20
2023-04-22T11:59:41.334Z,1.13
2023-04-22T12:02:12.437Z,1.13
2023-04-22T12:04:46.284Z,1.20
2023-04-22T12:07:18.158Z,1.20
2023-04-22T12:09:50.303Z,0.95
2023-04-22T12:12:20.000Z,1.15
2023-04-22T12:14:50.858Z,1.05
2023-04-22T12:17:25.867Z,1.00
2023-04-22T12:20:00.971Z,1.05
2023-04-22T12:22:33.605Z,1.35
2023-04-22T12:25:03.899Z,0.90
2023-04-22T12:27:33.819Z,1.25
2023-04-22T12:30:03.548Z,1.30
2023-04-22T12:32:34.139Z,0.90
2023-04-22T12:35:08.645Z,1.48
2023-04-22T12:37:38.468Z,1.00
2023-04-22T12:40:09.956Z,1.05
2023-04-22T12:42:39.706Z,1.00
2023-04-22T12:45:11.369Z,1.00
2023-04-22T12:47:41.308Z,1.42
2023-04-22T12:50:13.757Z,1.13
2023-04-22T12:52:43.528Z,1.10
2023-04-22T12:55:14.013Z,1.20
2023-04-22T12:57:43.762Z,1.17
2023-04-22T13:00:16.371Z,1.50
2023-04-22T13:02:47.355Z,1.80
2023-04-22T13:05:20.923Z,1.25
2023-04-22T13:08:05.830Z,1.35
2023-04-22T13:10:36.683Z,1.50
2023-04-22T13:15:41.498Z,1.48
2023-04-22T13:18:11.204Z,1.20
2023-04-22T13:20:43.663Z,1.10
2023-04-22T13:23:13.501Z,1.33
2023-04-22T13:25:43.314Z,1.20
2023-04-22T13:28:14.080Z,1.17
2023-04-22T13:30:43.957Z,2.00
2023-04-22T13:33:13.658Z,5.93
2023-04-22T13:35:45.936Z,14.43
2023-04-22T13:38:15.663Z,4.35
2023-04-22T13:40:45.351Z,5.03
2023-04-22T13:43:15.348Z,2.45
2023-04-22T13:45:45.183Z,1.88
2023-04-22T13:48:15.210Z,1.30
2023-04-22T13:50:47.591Z,1.92
2023-04-22T13:53:17.311Z,1.50
2023-04-22T13:55:47.068Z,1.48
2023-04-22T13:58:16.752Z,1.20
2023-04-22T14:00:46.438Z,1.40
2023-04-22T14:03:16.309Z,1.25
2023-04-22T14:05:48.890Z,0.95
2023-04-22T14:08:18.556Z,1.08
2023-04-22T14:10:48.291Z,1.08
2023-04-22T14:13:18.108Z,1.30
2023-04-22T14:15:47.871Z,3.22
2023-04-22T14:18:17.562Z,1.23
2023-04-22T14:20:49.858Z,1.67
2023-04-22T14:23:19.803Z,2.10
2023-04-22T14:25:50.811Z,1.25
2023-04-22T14:28:20.616Z,1.35
2023-04-22T14:30:50.503Z,1.00
2023-04-22T14:33:20.270Z,1.20
2023-04-22T14:35:52.680Z,1.70
2023-04-22T14:38:23.558Z,4.40
2023-04-22T14:40:53.724Z,2.72
2023-04-22T14:43:23.410Z,1.58
2023-04-22T14:45:53.167Z,2.30
2023-04-22T14:48:25.100Z,2.03
2023-04-22T14:50:57.418Z,1.30
2023-04-22T14:53:27.158Z,1.20
2023-04-22T14:55:57.116Z,1.30
2023-04-22T14:58:27.206Z,1.40
2023-04-22T15:00:56.950Z,1.35
2023-04-22T15:03:26.902Z,1.33
2023-04-22T15:05:59.863Z,1.20
2023-04-22T15:08:29.602Z,1.33
2023-04-22T15:11:00.077Z,1.25
2023-04-22T15:13:29.909Z,1.60
2023-04-22T15:16:02.361Z,1.30
2023-04-22T15:18:32.188Z,1.10
2023-04-22T15:21:07.107Z,1.17
2023-04-22T15:23:36.789Z,1.27
2023-04-22T15:26:06.563Z,1.08
2023-04-22T15:28:36.743Z,1.10
2023-04-22T15:31:06.887Z,1.27
2023-04-22T15:33:36.769Z,1.23
2023-04-22T15:36:09.831Z,1.13
2023-04-22T15:38:40.182Z,1.33
2023-04-22T15:41:09.900Z,1.17
2023-04-22T15:43:39.620Z,1.23
2023-04-22T15:46:09.857Z,1.13
2023-04-22T15:48:41.237Z,1.02
2023-04-22T15:51:13.499Z,1.20
2023-04-22T15:53:43.182Z,1.02
2023-04-22T15:56:12.946Z,1.10
2023-04-22T15:58:42.918Z,1.23
2023-04-22T16:01:19.463Z,1.20
2023-04-22T16:03:49.654Z,1.38
2023-04-22T16:06:23.013Z,1.35
2023-04-22T16:08:52.764Z,1.00
2023-04-22T16:11:22.488Z,1.17
2023-04-22T16:13:52.157Z,1.00
2023-04-22T16:16:23.142Z,1.10
2023-04-22T16:18:52.896Z,1.10
2023-04-22T16:21:25.182Z,1.10
2023-04-22T16:23:54.935Z,0.90
2023-04-22T16:26:24.649Z,1.20
2023-04-22T16:28:55.053Z,1.30
2023-04-22T16:31:25.599Z,1.23
2023-04-22T16:33:55.717Z,8.40
2023-04-22T16:36:28.092Z,2.47
2023-04-22T16:38:57.808Z,1.30
2023-04-22T16:41:27.543Z,1.10
2023-04-22T16:43:57.352Z,1.08
2023-04-22T16:46:27.175Z,1.10
2023-04-22T16:48:56.996Z,1.92
2023-04-22T16:51:29.266Z,1.50
2023-04-22T16:53:59.108Z,1.75
2023-04-22T16:56:30.069Z,1.80
2023-04-22T16:59:00.623Z,2.00
2023-04-22T17:01:30.393Z,1.75
2023-04-22T17:04:00.491Z,1.83
2023-04-22T17:06:32.920Z,1.83
2023-04-22T17:09:02.674Z,1.98
2023-04-22T17:11:32.752Z,2.33
2023-04-22T17:14:02.448Z,2.00
2023-04-22T17:16:32.492Z,1.75
2023-04-22T17:19:02.150Z,2.00
2023-04-22T17:21:34.610Z,2.42
2023-04-22T17:24:05.918Z,2.20
2023-04-22T17:26:37.214Z,1.98
2023-04-22T17:29:06.987Z,2.28
2023-04-22T17:31:36.958Z,2.03
2023-04-22T17:34:06.788Z,2.10
2023-04-22T17:36:39.101Z,1.90
2023-04-22T17:39:09.093Z,1.90
2023-04-22T17:41:39.027Z,2.13
2023-04-22T17:44:09.154Z,2.30
2023-04-22T17:46:39.010Z,2.47
2023-04-22T17:49:08.730Z,1.75
2023-04-22T17:51:41.075Z,1.90
2023-04-22T17:54:10.898Z,1.73
2023-04-22T17:56:40.630Z,1.83
2023-04-22T17:59:11.484Z,1.83
2023-04-22T18:01:41.678Z,1.88
2023-04-22T18:04:11.607Z,1.70
2023-04-22T18:06:44.178Z,1.75
2023-04-22T18:09:13.900Z,1.63
2023-04-22T18:11:43.722Z,1.70
2023-04-22T18:14:13.562Z,1.90
2023-04-22T18:16:43.450Z,1.98
2023-04-22T18:19:13.255Z,2.00
2023-04-22T18:21:56.606Z,2.15
2023-04-22T18:24:29.963Z,2.38
2023-04-22T18:26:59.708Z,2.10
2023-04-22T18:29:29.416Z,2.08
2023-04-22T18:31:59.642Z,2.03
2023-04-22T18:34:29.570Z,1.95
2023-04-22T18:37:01.856Z,1.70
2023-04-22T18:39:31.614Z,1.95
2023-04-22T18:42:02.193Z,2.15
2023-04-22T18:44:31.977Z,2.45
2023-04-22T18:47:01.937Z,2.10
2023-04-22T18:49:33.934Z,2.70
2023-04-22T18:52:06.342Z,2.60
2023-04-22T18:54:36.315Z,2.38
2023-04-22T18:57:06.263Z,2.58
2023-04-22T18:59:35.978Z,3.17
2023-04-22T19:02:05.734Z,2.38
2023-04-22T19:04:35.655Z,2.53
2023-04-22T19:07:07.999Z,3.42
2023-04-22T19:09:37.983Z,4.85
2023-04-22T19:12:14.719Z,3.08
2023-04-22T19:14:44.853Z,2.00
2023-04-22T19:17:14.661Z,3.10
2023-04-22T19:19:45.535Z,3.10
2023-04-22T19:22:18.091Z,2.35
2023-04-22T19:24:48.372Z,2.20
2023-04-22T19:27:18.156Z,2.35
2023-04-22T19:29:51.370Z,2.90
2023-04-22T19:32:21.205Z,2.58
2023-04-22T19:34:51.457Z,1.80
2023-04-22T19:37:23.938Z,1.42
2023-04-22T19:39:53.601Z,1.35
2023-04-22T19:42:23.462Z,1.60
2023-04-22T19:44:53.509Z,1.50
2023-04-22T19:47:23.627Z,1.40
2023-04-22T19:49:53.882Z,1.38
2023-04-22T19:52:27.540Z,1.63
2023-04-22T19:55:01.158Z,1.65
2023-04-22T19:57:31.561Z,1.40
2023-04-22T20:00:01.987Z,1.70
2023-04-22T20:02:43.327Z,1.30
2023-04-22T20:05:13.941Z,1.20
2023-04-22T20:07:46.944Z,1.20
2023-04-22T20:10:17.235Z,1.23
2023-04-22T20:12:47.696Z,1.08
2023-04-22T20:15:18.022Z,1.60
2023-04-22T20:17:48.421Z,1.45
2023-04-22T20:20:18.793Z,1.15
2023-04-22T20:22:52.214Z,1.30
2023-04-22T20:25:23.245Z,2.30
2023-04-22T20:27:53.212Z,1.90
2023-04-22T20:30:23.168Z,1.50
2023-04-22T20:32:53.154Z,2.50
2023-04-22T20:35:23.470Z,2.70
2023-04-22T20:37:58.819Z,2.55
2023-04-22T20:40:29.484Z,3.95
2023-04-22T20:43:00.529Z,2.75
2023-04-22T20:45:30.482Z,2.70
2023-04-22T20:48:00.599Z,3.83
2023-04-22T20:50:33.616Z,2.33
2023-04-22T20:53:06.905Z,2.05
2023-04-22T20:55:37.353Z,1.58
2023-04-22T20:58:07.213Z,1.38
2023-04-22T21:00:36.993Z,1.30
2023-04-22T21:03:09.093Z,1.23
2023-04-22T21:05:42.550Z,1.40
2023-04-22T21:08:23.589Z,1.50
2023-04-22T21:10:54.883Z,1.30
2023-04-22T21:13:25.570Z,1.40
2023-04-22T21:16:00.736Z,1.33
2023-04-22T21:18:32.444Z,1.27
2023-04-22T21:21:05.898Z,1.50
2023-04-22T21:23:39.192Z,2.00
2023-04-22T21:26:09.535Z,1.60
2023-04-22T21:28:40.284Z,1.65
2023-04-22T21:31:11.178Z,1.90
2023-04-22T21:33:40.898Z,1.65
2023-04-22T21:36:11.500Z,2.00
2023-04-22T21:38:44.049Z,1.90
2023-04-22T21:41:13.743Z,1.30
2023-04-22T21:43:43.448Z,1.17
2023-04-22T21:46:13.128Z,1.60
2023-04-22T21:48:42.876Z,2.00
2023-04-22T21:51:12.709Z,1.50
2023-04-22T21:53:45.084Z,1.90
2023-04-22T21:56:15.043Z,1.67
2023-04-22T21:58:44.754Z,1.42
2023-04-22T22:01:14.534Z,1.90
2023-04-22T22:03:44.426Z,1.60
2023-04-22T22:06:14.390Z,1.30
2023-04-22T22:08:46.998Z,1.40
2023-04-22T22:11:27.434Z,1.75
2023-04-22T22:14:00.377Z,1.30
2023-04-22T22:16:31.212Z,1.42
2023-04-22T22:19:02.839Z,1.65
2023-04-22T22:21:33.198Z,1.33
2023-04-22T22:24:05.790Z,1.50
2023-04-22T22:26:36.623Z,1.73
2023-04-22T22:29:06.650Z,1.75
2023-04-22T22:31:36.477Z,1.73
2023-04-22T22:34:06.162Z,1.70
2023-04-22T22:36:36.328Z,1.35
2023-04-22T22:39:10.317Z,1.30
2023-04-22T22:41:41.640Z,1.80
2023-04-22T22:44:12.914Z,1.60
2023-04-22T22:46:43.144Z,1.95
2023-04-22T22:49:13.281Z,1.35
2023-04-22T22:51:43.003Z,1.60
2023-04-22T22:54:15.312Z,1.70
2023-04-22T22:56:45.109Z,1.77
2023-04-22T22:59:14.776Z,1.25
2023-04-22T23:01:44.481Z,1.30
2023-04-22T23:04:15.812Z,1.20
2023-04-22T23:06:45.724Z,1.30
2023-04-22T23:09:19.274Z,1.45
2023-04-22T23:11:51.719Z,1.73
2023-04-22T23:14:22.184Z,1.58
2023-04-22T23:16:52.229Z,1.70
2023-04-22T23:19:22.924Z,1.50
2023-04-22T23:21:52.983Z,1.50
2023-04-22T23:24:25.895Z,1.25
2023-04-22T23:26:57.464Z,1.70
2023-04-22T23:29:27.731Z,1.40
2023-04-22T23:31:58.584Z,1.40
2023-04-22T23:34:29.220Z,1.30
2023-04-22T23:37:01.128Z,1.50
2023-04-22T23:39:33.404Z,1.45
2023-04-22T23:42:03.161Z,1.55
2023-04-22T23:44:32.823Z,1.27
2023-04-22T23:47:02.670Z,1.50
2023-04-22T23:49:32.565Z,1.73
2023-04-22T23:52:02.434Z,1.48
2023-04-22T23:54:35.542Z,1.30
2023-04-22T23:57:05.705Z,1.73
2023-04-22T23:59:36.317Z,1.50
